sensor_id;sensor_type;location;lat;lon;timestamp;P1;durP1;ratioP1;P2;durP2;ratioP2
22429;SDS011;11382;48.086;11.632;2023-03-01T00:01:17;23.77;;;14.07;;
22429;SDS011;11382;48.086;11.632;2023-03-01T00:03:46;28.15;;;16.02;;
22429;SDS011;11382;48.086;11.632;2023-03-01T00:06:15;24.63;;;14.10;;
22429;SDS011;11382;48.086;11.632;2023-03-01T00:08:43;26.42;;;13.98;;
22429;SDS011;11382;48.086;11.632;2023-03-01T00:11:12;23.02;;;14.40;;
22429;SDS011;11382;48.086;11.632;2023-03-01T00:13:42;26.20;;;14.90;;
22429;SDS011;11382;48.086;11.632;2023-03-01T00:16:12;26.45;;;15.02;;
22429;SDS011;11382;48.086;11.632;2023-03-01T00:18:42;24.92;;;14.98;;
22429;SDS011;11382;48.086;11.632;2023-03-01T00:21:11;26.98;;;13.93;;
22429;SDS011;11382;48.086;11.632;2023-03-01T00:23:39;22.70;;;13.93;;
22429;SDS011;11382;48.086;11.632;2023-03-01T00:26:08;29.63;;;15.23;;
22429;SDS011;11382;48.086;11.632;2023-03-01T00:28:39;27.55;;;15.02;;
22429;SDS011;11382;48.086;11.632;2023-03-01T00:31:09;24.08;;;13.65;;
22429;SDS011;11382;48.086;11.632;2023-03-01T00:33:38;27.52;;;14.40;;
22429;SDS011;11382;48.086;11.632;2023-03-01T00:36:07;24.08;;;13.70;;
22429;SDS011;11382;48.086;11.632;2023-03-01T00:38:36;26.02;;;13.30;;
22429;SDS011;11382;48.086;11.632;2023-03-01T00:41:05;24.02;;;13.70;;
22429;SDS011;11382;48.086;11.632;2023-03-01T00:43:33;23.88;;;13.68;;
22429;SDS011;11382;48.086;11.632;2023-03-01T00:46:03;25.25;;;14.80;;
22429;SDS011;11382;48.086;11.632;2023-03-01T00:48:33;32.42;;;14.48;;
22429;SDS011;11382;48.086;11.632;2023-03-01T00:51:05;22.90;;;14.10;;
22429;SDS011;11382;48.086;11.632;2023-03-01T00:53:34;26.90;;;14.45;;
22429;SDS011;11382;48.086;11.632;2023-03-01T00:56:02;26.58;;;15.27;;
22429;SDS011;11382;48.086;11.632;2023-03-01T00:58:31;29.85;;;13.95;;
22429;SDS011;11382;48.086;11.632;2023-03-01T01:01:00;25.35;;;14.40;;
22429;SDS011;11382;48.086;11.632;2023-03-01T01:03:28;23.40;;;13.45;;
22429;SDS011;11382;48.086;11.632;2023-03-01T01:05:57;26.35;;;14.05;;
22429;SDS011;11382;48.086;11.632;2023-03-01T01:08:31;28.20;;;15.05;;
22429;SDS011;11382;48.086;11.632;2023-03-01T01:10:59;23.95;;;13.65;;
22429;SDS011;11382;48.086;11.632;2023-03-01T01:13:26;23.75;;;13.90;;
22429;SDS011;11382;48.086;11.632;2023-03-01T01:15:54;28.25;;;15.07;;
22429;SDS011;11382;48.086;11.632;2023-03-01T01:18:28;27.80;;;14.63;;
22429;SDS011;11382;48.086;11.632;2023-03-01T01:20:57;28.10;;;15.13;;
22429;SDS011;11382;48.086;11.632;2023-03-01T01:23:30;29.30;;;15.32;;
22429;SDS011;11382;48.086;11.632;2023-03-01T01:26:02;24.80;;;14.32;;
22429;SDS011;11382;48.086;11.632;2023-03-01T01:28:31;27.52;;;15.18;;
22429;SDS011;11382;48.086;11.632;2023-03-01T01:30:59;24.73;;;14.60;;
22429;SDS011;11382;48.086;11.632;2023-03-01T01:33:27;24.63;;;14.55;;
22429;SDS011;11382;48.086;11.632;2023-03-01T01:35:55;25.70;;;15.23;;
22429;SDS011;11382;48.086;11.632;2023-03-01T01:38:25;24.38;;;13.50;;
22429;SDS011;11382;48.086;11.632;2023-03-01T01:40:52;24.10;;;14.18;;
22429;SDS011;11382;48.086;11.632;2023-03-01T01:43:22;22.65;;;14.18;;
22429;SDS011;11382;48.086;11.632;2023-03-01T01:45:52;24.10;;;13.93;;
22429;SDS011;11382;48.086;11.632;2023-03-01T01:48:24;23.90;;;15.25;;
22429;SDS011;11382;48.086;11.632;2023-03-01T01:51:09;19.30;;;11.27;;
22429;SDS011;11382;48.086;11.632;2023-03-01T01:53:40;24.52;;;14.02;;
22429;SDS011;11382;48.086;11.632;2023-03-01T01:56:10;23.40;;;15.43;;
22429;SDS011;11382;48.086;11.632;2023-03-01T01:58:40;27.85;;;15.55;;
22429;SDS011;11382;48.086;11.632;2023-03-01T02:01:09;25.40;;;14.70;;
22429;SDS011;11382;48.086;11.632;2023-03-01T02:03:38;25.80;;;14.52;;
22429;SDS011;11382;48.086;11.632;2023-03-01T02:06:13;27.90;;;14.60;;
22429;SDS011;11382;48.086;11.632;2023-03-01T02:08:47;25.85;;;15.02;;
22429;SDS011;11382;48.086;11.632;2023-03-01T02:11:16;26.65;;;15.77;;
22429;SDS011;11382;48.086;11.632;2023-03-01T02:13:47;27.27;;;16.38;;
22429;SDS011;11382;48.086;11.632;2023-03-01T02:16:16;24.30;;;14.07;;
22429;SDS011;11382;48.086;11.632;2023-03-01T02:18:44;24.73;;;14.95;;
22429;SDS011;11382;48.086;11.632;2023-03-01T02:21:17;28.08;;;15.85;;
22429;SDS011;11382;48.086;11.632;2023-03-01T02:23:54;26.08;;;15.35;;
22429;SDS011;11382;48.086;11.632;2023-03-01T02:26:25;23.33;;;14.50;;
22429;SDS011;11382;48.086;11.632;2023-03-01T02:29:01;29.42;;;15.65;;
22429;SDS011;11382;48.086;11.632;2023-03-01T02:31:31;25.50;;;15.52;;
22429;SDS011;11382;48.086;11.632;2023-03-01T02:34:11;26.27;;;14.98;;
22429;SDS011;11382;48.086;11.632;2023-03-01T02:36:41;25.58;;;15.75;;
22429;SDS011;11382;48.086;11.632;2023-03-01T02:39:14;25.75;;;16.27;;
22429;SDS011;11382;48.086;11.632;2023-03-01T02:41:49;27.98;;;15.15;;
22429;SDS011;11382;48.086;11.632;2023-03-01T02:44:21;26.87;;;15.20;;
22429;SDS011;11382;48.086;11.632;2023-03-01T02:46:50;25.45;;;15.02;;
22429;SDS011;11382;48.086;11.632;2023-03-01T02:49:22;24.88;;;15.82;;
22429;SDS011;11382;48.086;11.632;2023-03-01T02:51:59;25.35;;;14.50;;
22429;SDS011;11382;48.086;11.632;2023-03-01T02:54:36;27.45;;;15.45;;
22429;SDS011;11382;48.086;11.632;2023-03-01T02:57:08;25.42;;;15.23;;
22429;SDS011;11382;48.086;11.632;2023-03-01T02:59:38;27.13;;;15.80;;
22429;SDS011;11382;48.086;11.632;2023-03-01T03:02:18;26.50;;;15.27;;
22429;SDS011;11382;48.086;11.632;2023-03-01T03:05:07;25.75;;;15.52;;
22429;SDS011;11382;48.086;11.632;2023-03-01T03:07:37;25.10;;;14.18;;
22429;SDS011;11382;48.086;11.632;2023-03-01T03:10:08;27.70;;;15.15;;
22429;SDS011;11382;48.086;11.632;2023-03-01T03:12:38;25.95;;;15.63;;
22429;SDS011;11382;48.086;11.632;2023-03-01T03:15:09;26.83;;;14.85;;
22429;SDS011;11382;48.086;11.632;2023-03-01T03:17:39;27.42;;;15.13;;
22429;SDS011;11382;48.086;11.632;2023-03-01T03:20:12;24.67;;;15.52;;
22429;SDS011;11382;48.086;11.632;2023-03-01T03:22:45;25.73;;;15.55;;
22429;SDS011;11382;48.086;11.632;2023-03-01T03:25:14;26.70;;;16.63;;
22429;SDS011;11382;48.086;11.632;2023-03-01T03:27:43;26.52;;;15.38;;
22429;SDS011;11382;48.086;11.632;2023-03-01T03:30:15;25.67;;;16.35;;
22429;SDS011;11382;48.086;11.632;2023-03-01T03:32:47;26.58;;;15.77;;
22429;SDS011;11382;48.086;11.632;2023-03-01T03:35:19;25.80;;;16.13;;
22429;SDS011;11382;48.086;11.632;2023-03-01T03:37:48;28.63;;;16.55;;
22429;SDS011;11382;48.086;11.632;2023-03-01T03:40:33;28.48;;;17.15;;
22429;SDS011;11382;48.086;11.632;2023-03-01T03:43:02;29.52;;;16.27;;
22429;SDS011;11382;48.086;11.632;2023-03-01T03:45:32;28.77;;;15.88;;
22429;SDS011;11382;48.086;11.632;2023-03-01T03:48:01;27.55;;;16.85;;
22429;SDS011;11382;48.086;11.632;2023-03-01T03:50:30;28.27;;;15.80;;
22429;SDS011;11382;48.086;11.632;2023-03-01T03:52:59;26.55;;;16.58;;
22429;SDS011;11382;48.086;11.632;2023-03-01T03:55:28;29.15;;;16.58;;
22429;SDS011;11382;48.086;11.632;2023-03-01T03:57:57;26.67;;;15.82;;
22429;SDS011;11382;48.086;11.632;2023-03-01T04:00:28;24.75;;;15.73;;
22429;SDS011;11382;48.086;11.632;2023-03-01T04:02:57;29.67;;;15.82;;
22429;SDS011;11382;48.086;11.632;2023-03-01T04:05:27;28.20;;;16.65;;
22429;SDS011;11382;48.086;11.632;2023-03-01T04:07:54;28.75;;;16.75;;
22429;SDS011;11382;48.086;11.632;2023-03-01T04:10:28;26.50;;;16.38;;
22429;SDS011;11382;48.086;11.632;2023-03-01T04:12:57;28.15;;;16.08;;
22429;SDS011;11382;48.086;11.632;2023-03-01T04:15:26;28.02;;;17.02;;
22429;SDS011;11382;48.086;11.632;2023-03-01T04:17:54;27.33;;;17.05;;
22429;SDS011;11382;48.086;11.632;2023-03-01T04:20:24;28.25;;;16.83;;
22429;SDS011;11382;48.086;11.632;2023-03-01T04:22:56;28.10;;;16.58;;
22429;SDS011;11382;48.086;11.632;2023-03-01T04:25:25;27.25;;;16.95;;
22429;SDS011;11382;48.086;11.632;2023-03-01T04:27:56;27.15;;;16.55;;
22429;SDS011;11382;48.086;11.632;2023-03-01T04:30:24;26.10;;;16.20;;
22429;SDS011;11382;48.086;11.632;2023-03-01T04:32:52;25.45;;;15.93;;
22429;SDS011;11382;48.086;11.632;2023-03-01T04:35:20;28.83;;;16.95;;
22429;SDS011;11382;48.086;11.632;2023-03-01T04:37:50;28.30;;;16.92;;
22429;SDS011;11382;48.086;11.632;2023-03-01T04:40:18;32.42;;;17.38;;
22429;SDS011;11382;48.086;11.632;2023-03-01T04:42:47;27.02;;;17.33;;
22429;SDS011;11382;48.086;11.632;2023-03-01T04:45:15;28.95;;;17.42;;
22429;SDS011;11382;48.086;11.632;2023-03-01T04:47:43;25.98;;;16.67;;
22429;SDS011;11382;48.086;11.632;2023-03-01T04:50:13;27.48;;;16.90;;
22429;SDS011;11382;48.086;11.632;2023-03-01T04:52:41;29.50;;;17.85;;
22429;SDS011;11382;48.086;11.632;2023-03-01T04:55:11;30.13;;;16.85;;
22429;SDS011;11382;48.086;11.632;2023-03-01T04:57:40;29.13;;;17.27;;
22429;SDS011;11382;48.086;11.632;2023-03-01T05:00:09;31.70;;;17.92;;
22429;SDS011;11382;48.086;11.632;2023-03-01T05:02:47;25.67;;;16.25;;
22429;SDS011;11382;48.086;11.632;2023-03-01T05:05:20;27.27;;;15.70;;
22429;SDS011;11382;48.086;11.632;2023-03-01T05:07:52;30.00;;;17.23;;
22429;SDS011;11382;48.086;11.632;2023-03-01T05:10:22;27.35;;;17.65;;
22429;SDS011;11382;48.086;11.632;2023-03-01T05:12:51;28.30;;;16.63;;
22429;SDS011;11382;48.086;11.632;2023-03-01T05:15:19;32.22;;;16.92;;
22429;SDS011;11382;48.086;11.632;2023-03-01T05:17:52;29.40;;;17.40;;
22429;SDS011;11382;48.086;11.632;2023-03-01T05:20:20;30.27;;;17.20;;
22429;SDS011;11382;48.086;11.632;2023-03-01T05:22:50;28.83;;;17.08;;
22429;SDS011;11382;48.086;11.632;2023-03-01T05:25:19;28.38;;;17.17;;
22429;SDS011;11382;48.086;11.632;2023-03-01T05:27:49;30.20;;;17.15;;
22429;SDS011;11382;48.086;11.632;2023-03-01T05:30:17;29.35;;;17.70;;
22429;SDS011;11382;48.086;11.632;2023-03-01T05:32:46;28.00;;;16.90;;
22429;SDS011;11382;48.086;11.632;2023-03-01T05:35:16;29.05;;;17.23;;
22429;SDS011;11382;48.086;11.632;2023-03-01T05:37:46;30.20;;;16.95;;
22429;SDS011;11382;48.086;11.632;2023-03-01T05:40:15;29.45;;;16.40;;
22429;SDS011;11382;48.086;11.632;2023-03-01T05:42:45;30.17;;;17.55;;
22429;SDS011;11382;48.086;11.632;2023-03-01T05:45:15;30.02;;;17.50;;
22429;SDS011;11382;48.086;11.632;2023-03-01T05:47:45;29.42;;;17.15;;
22429;SDS011;11382;48.086;11.632;2023-03-01T05:50:14;30.23;;;17.35;;
22429;SDS011;11382;48.086;11.632;2023-03-01T05:52:45;28.83;;;16.92;;
22429;SDS011;11382;48.086;11.632;2023-03-01T05:55:15;26.52;;;16.90;;
22429;SDS011;11382;48.086;11.632;2023-03-01T05:57:43;27.83;;;16.98;;
22429;SDS011;11382;48.086;11.632;2023-03-01T06:00:11;30.45;;;17.38;;
22429;SDS011;11382;48.086;11.632;2023-03-01T06:02:42;29.42;;;17.60;;
22429;SDS011;11382;48.086;11.632;2023-03-01T06:05:11;31.00;;;17.50;;
22429;SDS011;11382;48.086;11.632;2023-03-01T06:07:41;32.00;;;18.77;;
22429;SDS011;11382;48.086;11.632;2023-03-01T06:10:10;29.67;;;17.48;;
22429;SDS011;11382;48.086;11.632;2023-03-01T06:12:40;29.85;;;17.83;;
22429;SDS011;11382;48.086;11.632;2023-03-01T06:15:10;29.20;;;17.27;;
22429;SDS011;11382;48.086;11.632;2023-03-01T06:17:40;31.05;;;18.05;;
22429;SDS011;11382;48.086;11.632;2023-03-01T06:20:12;29.45;;;17.48;;
22429;SDS011;11382;48.086;11.632;2023-03-01T06:22:42;32.92;;;18.55;;
22429;SDS011;11382;48.086;11.632;2023-03-01T06:25:11;35.17;;;17.48;;
22429;SDS011;11382;48.086;11.632;2023-03-01T06:27:40;27.70;;;17.20;;
22429;SDS011;11382;48.086;11.632;2023-03-01T06:30:10;27.83;;;17.52;;
22429;SDS011;11382;48.086;11.632;2023-03-01T06:32:40;30.33;;;17.30;;
22429;SDS011;11382;48.086;11.632;2023-03-01T06:35:10;27.45;;;16.55;;
22429;SDS011;11382;48.086;11.632;2023-03-01T06:37:40;31.08;;;17.27;;
22429;SDS011;11382;48.086;11.632;2023-03-01T06:40:09;27.38;;;17.27;;
22429;SDS011;11382;48.086;11.632;2023-03-01T06:42:40;33.95;;;18.20;;
22429;SDS011;11382;48.086;11.632;2023-03-01T06:45:10;28.05;;;17.30;;
22429;SDS011;11382;48.086;11.632;2023-03-01T06:47:38;30.38;;;17.73;;
22429;SDS011;11382;48.086;11.632;2023-03-01T06:50:06;31.67;;;16.98;;
22429;SDS011;11382;48.086;11.632;2023-03-01T06:52:37;30.30;;;16.42;;
22429;SDS011;11382;48.086;11.632;2023-03-01T06:55:05;32.92;;;18.10;;
22429;SDS011;11382;48.086;11.632;2023-03-01T06:57:34;30.13;;;17.30;;
22429;SDS011;11382;48.086;11.632;2023-03-01T07:00:02;29.80;;;17.60;;
22429;SDS011;11382;48.086;11.632;2023-03-01T07:02:31;32.70;;;18.10;;
22429;SDS011;11382;48.086;11.632;2023-03-01T07:04:59;31.20;;;17.67;;
22429;SDS011;11382;48.086;11.632;2023-03-01T07:07:26;31.15;;;17.58;;
22429;SDS011;11382;48.086;11.632;2023-03-01T07:09:56;32.03;;;18.95;;
22429;SDS011;11382;48.086;11.632;2023-03-01T07:12:24;30.08;;;17.17;;
22429;SDS011;11382;48.086;11.632;2023-03-01T07:14:52;36.13;;;18.10;;
22429;SDS011;11382;48.086;11.632;2023-03-01T07:17:19;31.80;;;17.40;;
22429;SDS011;11382;48.086;11.632;2023-03-01T07:19:47;30.70;;;17.80;;
22429;SDS011;11382;48.086;11.632;2023-03-01T07:22:15;28.95;;;17.15;;
22429;SDS011;11382;48.086;11.632;2023-03-01T07:24:43;28.45;;;17.50;;
22429;SDS011;11382;48.086;11.632;2023-03-01T07:27:13;35.00;;;18.88;;
22429;SDS011;11382;48.086;11.632;2023-03-01T07:29:41;35.78;;;18.40;;
22429;SDS011;11382;48.086;11.632;2023-03-01T07:32:09;30.88;;;18.77;;
22429;SDS011;11382;48.086;11.632;2023-03-01T07:34:38;28.90;;;16.88;;
22429;SDS011;11382;48.086;11.632;2023-03-01T07:37:05;30.33;;;17.30;;
22429;SDS011;11382;48.086;11.632;2023-03-01T07:39:33;33.53;;;18.75;;
22429;SDS011;11382;48.086;11.632;2023-03-01T07:42:01;34.80;;;17.83;;
22429;SDS011;11382;48.086;11.632;2023-03-01T07:44:30;31.75;;;17.98;;
22429;SDS011;11382;48.086;11.632;2023-03-01T07:46:58;31.67;;;18.20;;
22429;SDS011;11382;48.086;11.632;2023-03-01T07:49:26;30.13;;;17.23;;
22429;SDS011;11382;48.086;11.632;2023-03-01T07:51:54;34.60;;;17.88;;
22429;SDS011;11382;48.086;11.632;2023-03-01T07:54:22;27.33;;;17.20;;
22429;SDS011;11382;48.086;11.632;2023-03-01T07:56:50;33.13;;;18.38;;
22429;SDS011;11382;48.086;11.632;2023-03-01T07:59:18;31.88;;;17.48;;
22429;SDS011;11382;48.086;11.632;2023-03-01T08:01:48;32.78;;;17.35;;
22429;SDS011;11382;48.086;11.632;2023-03-01T08:04:16;31.85;;;17.58;;
22429;SDS011;11382;48.086;11.632;2023-03-01T08:06:44;29.23;;;16.95;;
22429;SDS011;11382;48.086;11.632;2023-03-01T08:09:11;30.30;;;18.88;;
22429;SDS011;11382;48.086;11.632;2023-03-01T08:11:40;35.10;;;18.75;;
22429;SDS011;11382;48.086;11.632;2023-03-01T08:14:08;29.80;;;18.13;;
22429;SDS011;11382;48.086;11.632;2023-03-01T08:16:37;31.30;;;18.60;;
22429;SDS011;11382;48.086;11.632;2023-03-01T08:19:06;30.02;;;17.83;;
22429;SDS011;11382;48.086;11.632;2023-03-01T08:21:34;39.72;;;19.05;;
22429;SDS011;11382;48.086;11.632;2023-03-01T08:24:02;32.53;;;18.00;;
22429;SDS011;11382;48.086;11.632;2023-03-01T08:26:32;32.25;;;18.23;;
22429;SDS011;11382;48.086;11.632;2023-03-01T08:29:00;33.80;;;18.60;;
22429;SDS011;11382;48.086;11.632;2023-03-01T08:31:29;31.35;;;17.70;;
22429;SDS011;11382;48.086;11.632;2023-03-01T08:33:59;34.60;;;18.83;;
22429;SDS011;11382;48.086;11.632;2023-03-01T08:36:30;31.35;;;17.55;;
22429;SDS011;11382;48.086;11.632;2023-03-01T08:38:59;29.20;;;17.23;;
22429;SDS011;11382;48.086;11.632;2023-03-01T08:41:27;30.02;;;17.25;;
22429;SDS011;11382;48.086;11.632;2023-03-01T08:43:55;32.20;;;17.65;;
22429;SDS011;11382;48.086;11.632;2023-03-01T08:46:26;34.88;;;18.38;;
22429;SDS011;11382;48.086;11.632;2023-03-01T08:48:54;30.73;;;18.02;;
22429;SDS011;11382;48.086;11.632;2023-03-01T08:51:24;31.00;;;18.40;;
22429;SDS011;11382;48.086;11.632;2023-03-01T08:53:54;31.52;;;18.00;;
22429;SDS011;11382;48.086;11.632;2023-03-01T08:56:22;32.60;;;18.75;;
22429;SDS011;11382;48.086;11.632;2023-03-01T08:58:50;30.90;;;17.95;;
22429;SDS011;11382;48.086;11.632;2023-03-01T09:01:18;32.72;;;18.25;;
22429;SDS011;11382;48.086;11.632;2023-03-01T09:03:46;32.45;;;18.52;;
22429;SDS011;11382;48.086;11.632;2023-03-01T09:06:14;27.73;;;17.67;;
22429;SDS011;11382;48.086;11.632;2023-03-01T09:08:43;31.42;;;17.70;;
22429;SDS011;11382;48.086;11.632;2023-03-01T09:11:15;30.48;;;17.90;;
22429;SDS011;11382;48.086;11.632;2023-03-01T09:13:47;31.50;;;17.02;;
22429;SDS011;11382;48.086;11.632;2023-03-01T09:16:16;33.08;;;18.77;;
22429;SDS011;11382;48.086;11.632;2023-03-01T09:18:48;31.77;;;18.25;;
22429;SDS011;11382;48.086;11.632;2023-03-01T09:21:17;32.55;;;18.00;;
22429;SDS011;11382;48.086;11.632;2023-03-01T09:24:05;33.03;;;17.45;;
22429;SDS011;11382;48.086;11.632;2023-03-01T09:26:35;32.58;;;18.48;;
22429;SDS011;11382;48.086;11.632;2023-03-01T09:29:02;34.75;;;16.75;;
22429;SDS011;11382;48.086;11.632;2023-03-01T09:31:30;36.45;;;17.40;;
22429;SDS011;11382;48.086;11.632;2023-03-01T09:33:58;30.17;;;17.65;;
22429;SDS011;11382;48.086;11.632;2023-03-01T09:36:26;31.20;;;16.80;;
22429;SDS011;11382;48.086;11.632;2023-03-01T09:38:55;33.03;;;16.73;;
22429;SDS011;11382;48.086;11.632;2023-03-01T09:41:29;29.75;;;16.50;;
22429;SDS011;11382;48.086;11.632;2023-03-01T09:44:12;30.80;;;18.00;;
22429;SDS011;11382;48.086;11.632;2023-03-01T09:46:53;34.72;;;17.92;;
22429;SDS011;11382;48.086;11.632;2023-03-01T09:49:22;37.40;;;18.17;;
22429;SDS011;11382;48.086;11.632;2023-03-01T09:51:56;33.13;;;18.58;;
22429;SDS011;11382;48.086;11.632;2023-03-01T09:54:27;32.38;;;17.27;;
22429;SDS011;11382;48.086;11.632;2023-03-01T09:57:05;31.90;;;16.75;;
22429;SDS011;11382;48.086;11.632;2023-03-01T09:59:49;31.05;;;16.85;;
22429;SDS011;11382;48.086;11.632;2023-03-01T10:02:41;31.73;;;17.65;;
22429;SDS011;11382;48.086;11.632;2023-03-01T10:05:15;30.63;;;17.27;;
22429;SDS011;11382;48.086;11.632;2023-03-01T10:07:56;30.05;;;16.60;;
22429;SDS011;11382;48.086;11.632;2023-03-01T10:10:33;34.85;;;17.27;;
22429;SDS011;11382;48.086;11.632;2023-03-01T10:13:08;29.05;;;16.35;;
22429;SDS011;11382;48.086;11.632;2023-03-01T10:15:43;35.67;;;17.42;;
22429;SDS011;11382;48.086;11.632;2023-03-01T10:18:16;33.50;;;16.90;;
22429;SDS011;11382;48.086;11.632;2023-03-01T10:20:48;30.40;;;16.15;;
22429;SDS011;11382;48.086;11.632;2023-03-01T10:23:21;29.67;;;16.25;;
22429;SDS011;11382;48.086;11.632;2023-03-01T10:28:43;32.97;;;16.52;;
22429;SDS011;11382;48.086;11.632;2023-03-01T10:31:20;30.88;;;15.73;;
22429;SDS011;11382;48.086;11.632;2023-03-01T10:33:55;26.88;;;15.43;;
22429;SDS011;11382;48.086;11.632;2023-03-01T10:36:25;27.90;;;15.10;;
22429;SDS011;11382;48.086;11.632;2023-03-01T10:38:53;27.00;;;14.35;;
22429;SDS011;11382;48.086;11.632;2023-03-01T10:41:23;25.10;;;14.55;;
22429;SDS011;11382;48.086;11.632;2023-03-01T10:43:55;29.40;;;14.88;;
22429;SDS011;11382;48.086;11.632;2023-03-01T10:46:26;29.42;;;15.88;;
22429;SDS011;11382;48.086;11.632;2023-03-01T10:49:12;28.98;;;15.23;;
22429;SDS011;11382;48.086;11.632;2023-03-01T10:51:43;30.42;;;14.18;;
22429;SDS011;11382;48.086;11.632;2023-03-01T10:54:15;27.50;;;15.25;;
22429;SDS011;11382;48.086;11.632;2023-03-01T10:56:46;27.23;;;15.45;;
22429;SDS011;11382;48.086;11.632;2023-03-01T10:59:21;27.55;;;16.17;;
22429;SDS011;11382;48.086;11.632;2023-03-01T11:02:03;29.13;;;15.63;;
22429;SDS011;11382;48.086;11.632;2023-03-01T11:04:58;25.63;;;15.55;;
22429;SDS011;11382;48.086;11.632;2023-03-01T11:07:28;30.63;;;16.42;;
22429;SDS011;11382;48.086;11.632;2023-03-01T11:09:56;29.42;;;15.95;;
22429;SDS011;11382;48.086;11.632;2023-03-01T11:12:24;27.98;;;16.55;;
22429;SDS011;11382;48.086;11.632;2023-03-01T11:14:57;29.00;;;16.83;;
22429;SDS011;11382;48.086;11.632;2023-03-01T11:17:27;28.08;;;16.38;;
22429;SDS011;11382;48.086;11.632;2023-03-01T11:20:04;26.08;;;15.63;;
22429;SDS011;11382;48.086;11.632;2023-03-01T11:22:45;25.77;;;15.68;;
22429;SDS011;11382;48.086;11.632;2023-03-01T11:25:16;26.85;;;15.95;;
22429;SDS011;11382;48.086;11.632;2023-03-01T11:27:47;27.88;;;16.88;;
22429;SDS011;11382;48.086;11.632;2023-03-01T11:30:18;27.58;;;17.70;;
22429;SDS011;11382;48.086;11.632;2023-03-01T11:32:53;26.58;;;16.88;;
22429;SDS011;11382;48.086;11.632;2023-03-01T11:35:31;28.17;;;17.08;;
22429;SDS011;11382;48.086;11.632;2023-03-01T11:38:06;26.45;;;16.50;;
22429;SDS011;11382;48.086;11.632;2023-03-01T11:40:44;27.55;;;16.83;;
22429;SDS011;11382;48.086;11.632;2023-03-01T11:43:22;27.67;;;17.08;;
22429;SDS011;11382;48.086;11.632;2023-03-01T11:46:02;25.90;;;17.08;;
22429;SDS011;11382;48.086;11.632;2023-03-01T11:48:52;25.33;;;16.35;;
22429;SDS011;11382;48.086;11.632;2023-03-01T11:51:37;26.92;;;17.00;;
22429;SDS011;11382;48.086;11.632;2023-03-01T11:54:18;29.85;;;17.25;;
22429;SDS011;11382;48.086;11.632;2023-03-01T11:56:55;29.02;;;16.42;;
22429;SDS011;11382;48.086;11.632;2023-03-01T12:02:27;24.98;;;16.35;;
22429;SDS011;11382;48.086;11.632;2023-03-01T12:08:14;26.15;;;16.98;;
22429;SDS011;11382;48.086;11.632;2023-03-01T12:10:48;27.23;;;17.23;;
22429;SDS011;11382;48.086;11.632;2023-03-01T12:13:27;26.38;;;16.85;;
22429;SDS011;11382;48.086;11.632;2023-03-01T12:16:18;26.20;;;16.88;;
22429;SDS011;11382;48.086;11.632;2023-03-01T12:19:15;29.15;;;17.50;;
22429;SDS011;11382;48.086;11.632;2023-03-01T12:21:58;32.10;;;17.67;;
22429;SDS011;11382;48.086;11.632;2023-03-01T12:24:43;29.23;;;17.40;;
22429;SDS011;11382;48.086;11.632;2023-03-01T12:27:35;29.02;;;18.08;;
22429;SDS011;11382;48.086;11.632;2023-03-01T12:30:19;27.83;;;17.48;;
22429;SDS011;11382;48.086;11.632;2023-03-01T12:33:09;31.17;;;18.83;;
22429;SDS011;11382;48.086;11.632;2023-03-01T12:35:57;30.05;;;17.65;;
22429;SDS011;11382;48.086;11.632;2023-03-01T12:38:41;27.25;;;17.38;;
22429;SDS011;11382;48.086;11.632;2023-03-01T12:41:26;30.90;;;18.65;;
22429;SDS011;11382;48.086;11.632;2023-03-01T12:44:09;28.60;;;17.52;;
22429;SDS011;11382;48.086;11.632;2023-03-01T12:46:52;30.80;;;17.88;;
22429;SDS011;11382;48.086;11.632;2023-03-01T12:49:34;32.83;;;18.80;;
22429;SDS011;11382;48.086;11.632;2023-03-01T12:52:10;28.77;;;17.43;;
22429;SDS011;11382;48.086;11.632;2023-03-01T12:54:42;30.23;;;17.90;;
22429;SDS011;11382;48.086;11.632;2023-03-01T12:57:13;29.45;;;18.45;;
22429;SDS011;11382;48.086;11.632;2023-03-01T13:02:20;31.15;;;17.60;;
22429;SDS011;11382;48.086;11.632;2023-03-01T13:04:53;27.40;;;17.52;;
22429;SDS011;11382;48.086;11.632;2023-03-01T13:07:33;33.33;;;18.52;;
22429;SDS011;11382;48.086;11.632;2023-03-01T13:10:08;28.65;;;16.98;;
22429;SDS011;11382;48.086;11.632;2023-03-01T13:12:53;28.77;;;17.20;;
22429;SDS011;11382;48.086;11.632;2023-03-01T13:15:38;29.33;;;17.17;;
22429;SDS011;11382;48.086;11.632;2023-03-01T13:20:57;32.72;;;17.35;;
22429;SDS011;11382;48.086;11.632;2023-03-01T13:23:29;31.00;;;18.63;;
22429;SDS011;11382;48.086;11.632;2023-03-01T13:26:00;31.95;;;18.13;;
22429;SDS011;11382;48.086;11.632;2023-03-01T13:28:50;34.15;;;18.20;;
22429;SDS011;11382;48.086;11.632;2023-03-01T13:37:26;33.28;;;17.75;;
22429;SDS011;11382;48.086;11.632;2023-03-01T13:39:59;27.92;;;17.10;;
22429;SDS011;11382;48.086;11.632;2023-03-01T13:42:33;28.92;;;17.42;;
22429;SDS011;11382;48.086;11.632;2023-03-01T13:45:31;27.40;;;17.23;;
22429;SDS011;11382;48.086;11.632;2023-03-01T13:48:08;29.17;;;17.73;;
22429;SDS011;11382;48.086;11.632;2023-03-01T13:50:38;30.55;;;18.30;;
22429;SDS011;11382;48.086;11.632;2023-03-01T13:53:16;31.02;;;18.92;;
22429;SDS011;11382;48.086;11.632;2023-03-01T13:55:48;30.33;;;18.88;;
22429;SDS011;11382;48.086;11.632;2023-03-01T13:58:21;32.20;;;18.88;;
22429;SDS011;11382;48.086;11.632;2023-03-01T14:00:58;28.55;;;18.30;;
22429;SDS011;11382;48.086;11.632;2023-03-01T14:03:28;32.83;;;18.30;;
22429;SDS011;11382;48.086;11.632;2023-03-01T14:05:59;33.13;;;19.05;;
22429;SDS011;11382;48.086;11.632;2023-03-01T14:08:41;30.20;;;18.83;;
22429;SDS011;11382;48.086;11.632;2023-03-01T14:20:26;33.20;;;18.95;;
22429;SDS011;11382;48.086;11.632;2023-03-01T14:22:57;34.65;;;20.00;;
22429;SDS011;11382;48.086;11.632;2023-03-01T14:25:28;32.72;;;19.05;;
22429;SDS011;11382;48.086;11.632;2023-03-01T14:28:02;33.45;;;18.88;;
22429;SDS011;11382;48.086;11.632;2023-03-01T14:30:33;29.67;;;17.90;;
22429;SDS011;11382;48.086;11.632;2023-03-01T14:33:05;32.33;;;18.45;;
22429;SDS011;11382;48.086;11.632;2023-03-01T14:35:51;34.80;;;19.13;;
22429;SDS011;11382;48.086;11.632;2023-03-01T14:38:21;30.42;;;17.38;;
22429;SDS011;11382;48.086;11.632;2023-03-01T14:40:51;30.45;;;17.73;;
22429;SDS011;11382;48.086;11.632;2023-03-01T14:43:26;32.58;;;18.45;;
22429;SDS011;11382;48.086;11.632;2023-03-01T14:45:56;29.52;;;17.00;;
22429;SDS011;11382;48.086;11.632;2023-03-01T14:48:24;29.85;;;17.73;;
22429;SDS011;11382;48.086;11.632;2023-03-01T14:50:54;29.85;;;16.80;;
22429;SDS011;11382;48.086;11.632;2023-03-01T14:53:23;29.55;;;16.38;;
22429;SDS011;11382;48.086;11.632;2023-03-01T14:55:53;33.30;;;16.33;;
22429;SDS011;11382;48.086;11.632;2023-03-01T14:58:24;28.20;;;15.95;;
22429;SDS011;11382;48.086;11.632;2023-03-01T15:00:54;27.48;;;15.95;;
22429;SDS011;11382;48.086;11.632;2023-03-01T15:03:28;31.17;;;16.75;;
22429;SDS011;11382;48.086;11.632;2023-03-01T15:06:00;30.60;;;17.92;;